Terminal Aerodrome Forecast
Issued by NWS Sterling, VA

Home | Current Version | Previous Version | Text Only | Print | Product List | Glossary On
Versions: 1 2 3 4 5 6 7 8 9 10 11 12 13 14 15 16 17
672
FTUS41 KLWX 121127
TAFCHO
TAF
KCHO 121127Z 1212/1312 00000KT P6SM BKN100
     FM121600 19006KT P6SM OVC060
     FM130200 25005KT P6SM BKN070
     FM130600 29007KT P6SM SCT050
     FM131000 31010G21KT P6SM SCT050=

USA.gov is the U.S. government's official web portal to all federal, state and local government web resources and services.